VAM | Vabird-VBD

Virtual Vabird! Aerolínea Virtual de habla hispana, desde 2011




 INFORMACIÓN METAR y TAF
METAR FOR LEXJ
ADDS - METARS form results

(1244 UTC 12 April 2021)
Data provider http://aviationweather.gov/metar/data/
 
METAR text: LEXJ 121230Z 10008KT 040V140 9999 FEW038 BKN052 12/04 Q1029
Conditions at: LEXJ (SANTANDER/PARAYA, ES) observed 1230 UTC 12 April 2021
Temperature: 12.0°C (54°F)
Dewpoint: 4.0°C (39°F) [RH = 58%]
Pressure (altimeter): 30.38 inches Hg (1029.0 mb)
Winds: from the E (100 degrees) at 9 MPH (8 knots; 4.1 m/s)
Visibility: 6 or more miles (10+ km)
Ceiling: 5200 feet AGL
Clouds: few clouds at 3800 feet AGL
broken clouds at 5200 feet AGL
Weather: no significant weather observed at this time

METAR text: LEXJ 121200Z 12009KT 070V170 9999 FEW038 BKN054 13/04 Q1029
Conditions at: LEXJ (SANTANDER/PARAYA, ES) observed 1200 UTC 12 April 2021
Temperature: 13.0°C (55°F)
Dewpoint: 4.0°C (39°F) [RH = 54%]
Pressure (altimeter): 30.38 inches Hg (1029.0 mb)
Winds: from the ESE (120 degrees) at 10 MPH (9 knots; 4.6 m/s)
Visibility: 6 or more miles (10+ km)
Ceiling: 5400 feet AGL
Clouds: few clouds at 3800 feet AGL
broken clouds at 5400 feet AGL
Weather: no significant weather observed at this time

Forecast for: LEXJ (SANTANDER/PARAYA, ES)
Text: TAF LEXJ 120800Z 1209/1309 13006KT 9999 FEW040 TX12/1214Z TN05/1306Z
Forecast period: 0900 to 1000 UTC 12 April 2021
Forecast type: FROM: standard forecast or significant change
Winds: from the SE (130 degrees) at 7 MPH (6 knots; 3.1 m/s)
Visibility: 6 or more miles (10+ km)
Ceiling: at least 12,000 feet AGL
Clouds: few clouds at 4000 feet AGL
Weather: no significant weather forecast for this period
Text: BECMG 1210/1212 07012KT
Forecast period: 1000 UTC 12 April 2021 to 0100 UTC 13 April 2021
Forecast type: BECOMING: Conditions expected to become as follows by 1200 UTC 12 April 2021
Winds: from the ENE (70 degrees) at 14 MPH (12 knots; 6.2 m/s)
Visibility: 6 or more miles (10+ km)
Ceiling: at least 12,000 feet AGL
Clouds: few clouds at 4000 feet AGL
Weather: no significant weather forecast for this period
Text: PROB30
Forecast period: 1400 to 1700 UTC 12 April 2021
Forecast type: TEMPORARY: The following changes expected for less than half the time period
Winds: from the NE (50 degrees) at 17 MPH (15 knots; 7.7 m/s)
gusting to 29 MPH (25 knots; 12.9 m/s)
Visibility: missing
Ceiling: unknown
Clouds: missing
Weather: no significant weather forecast for this period
Text: TEMPO 1214/1217 05015G25KT
Forecast period: 0100 to 0900 UTC 13 April 2021
Forecast type: BECOMING: Conditions expected to become as follows by 0400 UTC 13 April 2021
Winds: from the SE (130 degrees) at 9 MPH (8 knots; 4.1 m/s)
Visibility: 6 or more miles (10+ km)
Ceiling: at least 12,000 feet AGL
Clouds: few clouds at 4000 feet AGL
Weather: no significant weather forecast for this period

 MAPA DE AEROPUERTO

 INFORMACIÓN DE PISTA